Flight Briefing for CMB826

Departure Arrival
Travis Air Force Base (KSUU)
Click to view FAA NOTAMS
Daniel K Inouye International Airport (PHNL)
Click to view FAA NOTAMS
Departure Time Arrival Time
N/A N/A
Aircraft Distance
B757-200SF 2117nm
Departure METAR Arrival METAR
KSUU 271058Z AUTO 22010KT 10SM OVC120 11/09 A2998 RMK AO2 SLP159 T01080087 $ PHNL 271153Z 35006KT 10SM FEW022 SCT060 24/19 A3001 RMK AO2 SLP163 T02440194 10267 20244 58014 $
Suggested Route
BESSA PYE BEBOP R464 BITTA


View recent IFR Routes data
Notes
USTRANSCOM CONTRACT FLIGHT

Charts and Procedures

Charts for KSUU
No chart available
Charts for PHNL
No chart available

Windy.com Weather Map